sensor_id;sensor_type;location;lat;lon;timestamp;P1;durP1;ratioP1;P2;durP2;ratioP2
48765;SDS011;65794;51.836;5.002;2023-04-07T00:01:32;22.83;;;6.18;;
48765;SDS011;65794;51.836;5.002;2023-04-07T00:03:59;20.02;;;6.10;;
48765;SDS011;65794;51.836;5.002;2023-04-07T00:06:27;18.63;;;6.68;;
48765;SDS011;65794;51.836;5.002;2023-04-07T00:08:54;22.83;;;6.80;;
48765;SDS011;65794;51.836;5.002;2023-04-07T00:11:21;21.67;;;6.32;;
48765;SDS011;65794;51.836;5.002;2023-04-07T00:13:48;13.07;;;5.43;;
48765;SDS011;65794;51.836;5.002;2023-04-07T00:16:15;18.73;;;6.13;;
48765;SDS011;65794;51.836;5.002;2023-04-07T00:18:43;13.88;;;5.07;;
48765;SDS011;65794;51.836;5.002;2023-04-07T00:21:10;13.95;;;5.72;;
48765;SDS011;65794;51.836;5.002;2023-04-07T00:23:37;18.13;;;5.63;;
48765;SDS011;65794;51.836;5.002;2023-04-07T00:26:04;17.20;;;5.78;;
48765;SDS011;65794;51.836;5.002;2023-04-07T00:28:31;14.75;;;5.22;;
48765;SDS011;65794;51.836;5.002;2023-04-07T00:30:59;16.98;;;5.75;;
48765;SDS011;65794;51.836;5.002;2023-04-07T00:33:26;16.48;;;6.18;;
48765;SDS011;65794;51.836;5.002;2023-04-07T00:35:53;16.83;;;6.20;;
48765;SDS011;65794;51.836;5.002;2023-04-07T00:38:20;17.38;;;6.32;;
48765;SDS011;65794;51.836;5.002;2023-04-07T00:40:47;16.38;;;6.15;;
48765;SDS011;65794;51.836;5.002;2023-04-07T00:43:14;15.38;;;5.85;;
48765;SDS011;65794;51.836;5.002;2023-04-07T00:45:42;12.63;;;5.32;;
48765;SDS011;65794;51.836;5.002;2023-04-07T00:48:09;13.15;;;5.82;;
48765;SDS011;65794;51.836;5.002;2023-04-07T00:50:36;19.27;;;6.50;;
48765;SDS011;65794;51.836;5.002;2023-04-07T00:53:03;15.77;;;6.15;;
48765;SDS011;65794;51.836;5.002;2023-04-07T00:55:31;16.75;;;6.07;;
48765;SDS011;65794;51.836;5.002;2023-04-07T00:57:58;19.08;;;6.63;;
48765;SDS011;65794;51.836;5.002;2023-04-07T01:00:25;18.15;;;6.15;;
48765;SDS011;65794;51.836;5.002;2023-04-07T01:02:57;18.75;;;6.72;;
48765;SDS011;65794;51.836;5.002;2023-04-07T01:05:37;18.98;;;6.28;;
48765;SDS011;65794;51.836;5.002;2023-04-07T01:08:23;21.05;;;6.10;;
48765;SDS011;65794;51.836;5.002;2023-04-07T01:10:57;19.25;;;6.45;;
48765;SDS011;65794;51.836;5.002;2023-04-07T01:13:27;19.38;;;5.97;;
48765;SDS011;65794;51.836;5.002;2023-04-07T01:16:08;14.35;;;5.35;;
48765;SDS011;65794;51.836;5.002;2023-04-07T01:18:41;15.15;;;5.32;;
48765;SDS011;65794;51.836;5.002;2023-04-07T01:21:10;14.70;;;5.10;;
48765;SDS011;65794;51.836;5.002;2023-04-07T01:26:16;16.00;;;5.90;;
48765;SDS011;65794;51.836;5.002;2023-04-07T01:33:47;17.30;;;5.60;;
48765;SDS011;65794;51.836;5.002;2023-04-07T01:36:15;14.55;;;4.90;;
48765;SDS011;65794;51.836;5.002;2023-04-07T01:38:43;17.63;;;4.80;;
48765;SDS011;65794;51.836;5.002;2023-04-07T01:41:10;13.65;;;4.50;;
48765;SDS011;65794;51.836;5.002;2023-04-07T01:43:37;16.70;;;5.03;;
48765;SDS011;65794;51.836;5.002;2023-04-07T01:46:07;9.38;;;4.50;;
48765;SDS011;65794;51.836;5.002;2023-04-07T01:48:34;10.82;;;4.07;;
48765;SDS011;65794;51.836;5.002;2023-04-07T01:51:03;15.50;;;5.07;;
48765;SDS011;65794;51.836;5.002;2023-04-07T01:53:30;20.95;;;5.65;;
48765;SDS011;65794;51.836;5.002;2023-04-07T01:55:57;15.85;;;4.50;;
48765;SDS011;65794;51.836;5.002;2023-04-07T01:58:24;18.17;;;5.00;;
48765;SDS011;65794;51.836;5.002;2023-04-07T02:00:52;16.52;;;5.07;;
48765;SDS011;65794;51.836;5.002;2023-04-07T02:03:29;15.77;;;4.72;;
48765;SDS011;65794;51.836;5.002;2023-04-07T02:05:59;15.18;;;5.25;;
48765;SDS011;65794;51.836;5.002;2023-04-07T02:08:29;15.43;;;4.63;;
48765;SDS011;65794;51.836;5.002;2023-04-07T02:10:59;17.67;;;5.05;;
48765;SDS011;65794;51.836;5.002;2023-04-07T02:13:32;17.25;;;4.95;;
48765;SDS011;65794;51.836;5.002;2023-04-07T02:15:59;21.45;;;4.78;;
48765;SDS011;65794;51.836;5.002;2023-04-07T02:18:28;18.80;;;5.10;;
48765;SDS011;65794;51.836;5.002;2023-04-07T02:20:56;18.15;;;4.82;;
48765;SDS011;65794;51.836;5.002;2023-04-07T02:23:23;13.43;;;4.20;;
48765;SDS011;65794;51.836;5.002;2023-04-07T02:25:50;16.85;;;4.35;;
48765;SDS011;65794;51.836;5.002;2023-04-07T02:28:18;17.88;;;4.47;;
48765;SDS011;65794;51.836;5.002;2023-04-07T02:30:45;18.48;;;4.65;;
48765;SDS011;65794;51.836;5.002;2023-04-07T02:33:12;15.23;;;3.97;;
48765;SDS011;65794;51.836;5.002;2023-04-07T02:35:42;16.27;;;4.20;;
48765;SDS011;65794;51.836;5.002;2023-04-07T02:38:08;18.58;;;4.43;;
48765;SDS011;65794;51.836;5.002;2023-04-07T02:40:36;16.70;;;4.30;;
48765;SDS011;65794;51.836;5.002;2023-04-07T02:43:02;27.17;;;5.32;;
48765;SDS011;65794;51.836;5.002;2023-04-07T02:45:30;16.33;;;4.40;;
48765;SDS011;65794;51.836;5.002;2023-04-07T02:47:57;26.02;;;4.88;;
48765;SDS011;65794;51.836;5.002;2023-04-07T02:50:24;17.27;;;4.65;;
48765;SDS011;65794;51.836;5.002;2023-04-07T02:52:51;18.23;;;4.53;;
48765;SDS011;65794;51.836;5.002;2023-04-07T02:55:18;19.95;;;4.50;;
48765;SDS011;65794;51.836;5.002;2023-04-07T02:57:45;24.73;;;5.07;;
48765;SDS011;65794;51.836;5.002;2023-04-07T03:00:24;20.65;;;4.85;;
48765;SDS011;65794;51.836;5.002;2023-04-07T03:03:14;28.05;;;5.30;;
48765;SDS011;65794;51.836;5.002;2023-04-07T03:05:51;28.15;;;5.00;;
48765;SDS011;65794;51.836;5.002;2023-04-07T03:08:18;15.70;;;5.13;;
48765;SDS011;65794;51.836;5.002;2023-04-07T03:10:44;23.23;;;4.63;;
48765;SDS011;65794;51.836;5.002;2023-04-07T03:13:11;25.48;;;5.68;;
48765;SDS011;65794;51.836;5.002;2023-04-07T03:15:42;24.40;;;5.68;;
48765;SDS011;65794;51.836;5.002;2023-04-07T03:18:09;24.70;;;5.97;;
48765;SDS011;65794;51.836;5.002;2023-04-07T03:20:39;22.13;;;5.28;;
48765;SDS011;65794;51.836;5.002;2023-04-07T03:23:10;27.20;;;5.30;;
48765;SDS011;65794;51.836;5.002;2023-04-07T03:25:36;21.70;;;5.68;;
48765;SDS011;65794;51.836;5.002;2023-04-07T03:28:04;25.45;;;5.78;;
48765;SDS011;65794;51.836;5.002;2023-04-07T03:30:35;28.33;;;5.82;;
48765;SDS011;65794;51.836;5.002;2023-04-07T03:33:03;20.70;;;5.47;;
48765;SDS011;65794;51.836;5.002;2023-04-07T03:35:30;34.35;;;5.55;;
48765;SDS011;65794;51.836;5.002;2023-04-07T03:37:57;19.60;;;4.78;;
48765;SDS011;65794;51.836;5.002;2023-04-07T03:40:25;26.25;;;5.18;;
48765;SDS011;65794;51.836;5.002;2023-04-07T03:42:52;21.27;;;5.20;;
48765;SDS011;65794;51.836;5.002;2023-04-07T03:45:19;19.77;;;4.82;;
48765;SDS011;65794;51.836;5.002;2023-04-07T03:47:48;15.95;;;5.35;;
48765;SDS011;65794;51.836;5.002;2023-04-07T03:50:16;18.92;;;4.82;;
48765;SDS011;65794;51.836;5.002;2023-04-07T03:52:56;21.40;;;5.45;;
48765;SDS011;65794;51.836;5.002;2023-04-07T03:55:27;20.65;;;5.57;;
48765;SDS011;65794;51.836;5.002;2023-04-07T03:57:59;22.95;;;5.18;;
48765;SDS011;65794;51.836;5.002;2023-04-07T04:00:30;18.13;;;5.28;;
48765;SDS011;65794;51.836;5.002;2023-04-07T04:03:07;24.98;;;6.32;;
48765;SDS011;65794;51.836;5.002;2023-04-07T04:05:42;23.90;;;6.22;;
48765;SDS011;65794;51.836;5.002;2023-04-07T04:08:13;19.70;;;5.50;;
48765;SDS011;65794;51.836;5.002;2023-04-07T04:10:41;25.42;;;5.60;;
48765;SDS011;65794;51.836;5.002;2023-04-07T04:13:08;18.30;;;5.50;;
48765;SDS011;65794;51.836;5.002;2023-04-07T04:15:36;22.92;;;5.57;;
48765;SDS011;65794;51.836;5.002;2023-04-07T04:18:07;18.40;;;5.32;;
48765;SDS011;65794;51.836;5.002;2023-04-07T04:20:34;24.33;;;5.72;;
48765;SDS011;65794;51.836;5.002;2023-04-07T04:23:04;23.15;;;5.57;;
48765;SDS011;65794;51.836;5.002;2023-04-07T04:25:33;24.73;;;5.70;;
48765;SDS011;65794;51.836;5.002;2023-04-07T04:28:03;21.77;;;5.30;;
48765;SDS011;65794;51.836;5.002;2023-04-07T04:30:30;21.90;;;6.03;;
48765;SDS011;65794;51.836;5.002;2023-04-07T04:33:01;23.02;;;6.30;;
48765;SDS011;65794;51.836;5.002;2023-04-07T04:35:49;21.50;;;5.97;;
48765;SDS011;65794;51.836;5.002;2023-04-07T04:38:19;22.20;;;6.30;;
48765;SDS011;65794;51.836;5.002;2023-04-07T04:40:59;21.95;;;5.53;;
48765;SDS011;65794;51.836;5.002;2023-04-07T04:43:28;23.45;;;6.53;;
48765;SDS011;65794;51.836;5.002;2023-04-07T04:45:56;23.38;;;6.57;;
48765;SDS011;65794;51.836;5.002;2023-04-07T04:48:25;24.33;;;6.13;;
48765;SDS011;65794;51.836;5.002;2023-04-07T04:50:53;31.98;;;6.03;;
48765;SDS011;65794;51.836;5.002;2023-04-07T04:53:25;23.67;;;7.53;;
48765;SDS011;65794;51.836;5.002;2023-04-07T04:55:58;23.33;;;6.22;;
48765;SDS011;65794;51.836;5.002;2023-04-07T04:58:36;27.30;;;7.10;;
48765;SDS011;65794;51.836;5.002;2023-04-07T05:01:06;28.17;;;7.72;;
48765;SDS011;65794;51.836;5.002;2023-04-07T05:03:49;25.45;;;6.75;;
48765;SDS011;65794;51.836;5.002;2023-04-07T05:06:21;21.83;;;6.63;;
48765;SDS011;65794;51.836;5.002;2023-04-07T05:08:51;29.05;;;6.80;;
48765;SDS011;65794;51.836;5.002;2023-04-07T05:11:21;29.17;;;7.20;;
48765;SDS011;65794;51.836;5.002;2023-04-07T05:13:51;25.40;;;6.95;;
48765;SDS011;65794;51.836;5.002;2023-04-07T05:16:18;22.08;;;6.90;;
48765;SDS011;65794;51.836;5.002;2023-04-07T05:18:46;22.33;;;6.22;;
48765;SDS011;65794;51.836;5.002;2023-04-07T05:21:13;14.82;;;5.40;;
48765;SDS011;65794;51.836;5.002;2023-04-07T05:23:40;17.60;;;4.90;;
48765;SDS011;65794;51.836;5.002;2023-04-07T05:26:09;14.93;;;5.03;;
48765;SDS011;65794;51.836;5.002;2023-04-07T05:28:36;15.38;;;5.28;;
48765;SDS011;65794;51.836;5.002;2023-04-07T05:31:07;17.20;;;5.00;;
48765;SDS011;65794;51.836;5.002;2023-04-07T05:33:35;21.13;;;6.38;;
48765;SDS011;65794;51.836;5.002;2023-04-07T05:36:02;15.55;;;4.80;;
48765;SDS011;65794;51.836;5.002;2023-04-07T05:38:30;15.52;;;4.78;;
48765;SDS011;65794;51.836;5.002;2023-04-07T05:41:04;14.10;;;5.20;;
48765;SDS011;65794;51.836;5.002;2023-04-07T05:43:33;17.75;;;5.10;;
48765;SDS011;65794;51.836;5.002;2023-04-07T05:46:00;14.68;;;5.05;;
48765;SDS011;65794;51.836;5.002;2023-04-07T05:48:27;19.40;;;5.40;;
48765;SDS011;65794;51.836;5.002;2023-04-07T05:50:54;22.90;;;5.00;;
48765;SDS011;65794;51.836;5.002;2023-04-07T05:53:21;14.07;;;4.85;;
48765;SDS011;65794;51.836;5.002;2023-04-07T05:55:48;16.30;;;5.43;;
48765;SDS011;65794;51.836;5.002;2023-04-07T05:58:29;17.60;;;4.95;;
48765;SDS011;65794;51.836;5.002;2023-04-07T06:00:57;12.93;;;4.10;;
48765;SDS011;65794;51.836;5.002;2023-04-07T06:03:24;19.48;;;5.20;;
48765;SDS011;65794;51.836;5.002;2023-04-07T06:08:27;12.55;;;4.85;;
48765;SDS011;65794;51.836;5.002;2023-04-07T06:10:58;15.07;;;4.38;;
48765;SDS011;65794;51.836;5.002;2023-04-07T06:13:25;15.23;;;4.28;;
48765;SDS011;65794;51.836;5.002;2023-04-07T06:15:53;9.48;;;3.38;;
48765;SDS011;65794;51.836;5.002;2023-04-07T06:18:20;13.60;;;3.53;;
48765;SDS011;65794;51.836;5.002;2023-04-07T06:20:47;9.95;;;3.35;;
48765;SDS011;65794;51.836;5.002;2023-04-07T06:23:14;11.90;;;3.42;;
48765;SDS011;65794;51.836;5.002;2023-04-07T06:25:41;10.65;;;3.38;;
48765;SDS011;65794;51.836;5.002;2023-04-07T06:28:08;11.90;;;3.65;;
48765;SDS011;65794;51.836;5.002;2023-04-07T06:30:34;9.38;;;3.33;;
48765;SDS011;65794;51.836;5.002;2023-04-07T06:33:05;20.17;;;3.97;;
48765;SDS011;65794;51.836;5.002;2023-04-07T06:35:32;12.15;;;3.78;;
48765;SDS011;65794;51.836;5.002;2023-04-07T06:37:59;16.63;;;4.00;;
48765;SDS011;65794;51.836;5.002;2023-04-07T06:40:26;12.65;;;4.05;;
48765;SDS011;65794;51.836;5.002;2023-04-07T06:42:53;15.35;;;4.07;;
48765;SDS011;65794;51.836;5.002;2023-04-07T06:45:29;10.68;;;3.40;;
48765;SDS011;65794;51.836;5.002;2023-04-07T06:47:56;12.82;;;3.60;;
48765;SDS011;65794;51.836;5.002;2023-04-07T06:50:23;14.48;;;3.42;;
48765;SDS011;65794;51.836;5.002;2023-04-07T06:52:49;11.15;;;3.25;;
48765;SDS011;65794;51.836;5.002;2023-04-07T06:55:16;12.10;;;2.72;;
48765;SDS011;65794;51.836;5.002;2023-04-07T06:57:43;9.35;;;3.08;;
48765;SDS011;65794;51.836;5.002;2023-04-07T07:00:10;15.45;;;3.50;;
48765;SDS011;65794;51.836;5.002;2023-04-07T07:02:37;8.68;;;3.13;;
48765;SDS011;65794;51.836;5.002;2023-04-07T07:05:05;8.63;;;2.30;;
48765;SDS011;65794;51.836;5.002;2023-04-07T07:07:32;8.82;;;2.75;;
48765;SDS011;65794;51.836;5.002;2023-04-07T07:09:59;14.23;;;3.17;;
48765;SDS011;65794;51.836;5.002;2023-04-07T07:12:26;13.25;;;3.38;;
48765;SDS011;65794;51.836;5.002;2023-04-07T07:14:55;12.18;;;3.38;;
48765;SDS011;65794;51.836;5.002;2023-04-07T07:17:22;13.02;;;3.25;;
48765;SDS011;65794;51.836;5.002;2023-04-07T07:19:49;9.57;;;2.60;;
48765;SDS011;65794;51.836;5.002;2023-04-07T07:22:16;12.48;;;2.75;;
48765;SDS011;65794;51.836;5.002;2023-04-07T07:24:43;8.63;;;2.50;;
48765;SDS011;65794;51.836;5.002;2023-04-07T07:27:10;10.77;;;2.60;;
48765;SDS011;65794;51.836;5.002;2023-04-07T07:29:37;14.80;;;2.60;;
48765;SDS011;65794;51.836;5.002;2023-04-07T07:32:04;8.00;;;2.20;;
48765;SDS011;65794;51.836;5.002;2023-04-07T07:34:31;12.35;;;2.50;;
48765;SDS011;65794;51.836;5.002;2023-04-07T07:36:58;9.18;;;2.15;;
48765;SDS011;65794;51.836;5.002;2023-04-07T07:39:25;9.65;;;1.83;;
48765;SDS011;65794;51.836;5.002;2023-04-07T07:41:52;6.35;;;1.90;;
48765;SDS011;65794;51.836;5.002;2023-04-07T07:44:20;10.40;;;2.55;;
48765;SDS011;65794;51.836;5.002;2023-04-07T07:46:48;7.75;;;2.05;;
48765;SDS011;65794;51.836;5.002;2023-04-07T07:49:15;11.07;;;2.38;;
48765;SDS011;65794;51.836;5.002;2023-04-07T07:51:42;7.88;;;1.90;;
48765;SDS011;65794;51.836;5.002;2023-04-07T07:54:09;8.40;;;1.73;;
48765;SDS011;65794;51.836;5.002;2023-04-07T07:56:36;8.98;;;2.10;;
48765;SDS011;65794;51.836;5.002;2023-04-07T07:59:03;14.65;;;1.83;;
48765;SDS011;65794;51.836;5.002;2023-04-07T08:01:34;6.93;;;1.80;;
48765;SDS011;65794;51.836;5.002;2023-04-07T08:04:01;9.30;;;2.00;;
48765;SDS011;65794;51.836;5.002;2023-04-07T08:06:28;10.40;;;1.73;;
48765;SDS011;65794;51.836;5.002;2023-04-07T08:08:57;6.30;;;1.30;;
48765;SDS011;65794;51.836;5.002;2023-04-07T08:11:24;13.00;;;1.65;;
48765;SDS011;65794;51.836;5.002;2023-04-07T08:13:51;11.55;;;2.05;;
48765;SDS011;65794;51.836;5.002;2023-04-07T08:16:19;7.93;;;1.48;;
48765;SDS011;65794;51.836;5.002;2023-04-07T08:18:48;9.95;;;1.90;;
48765;SDS011;65794;51.836;5.002;2023-04-07T08:21:15;9.55;;;1.40;;
48765;SDS011;65794;51.836;5.002;2023-04-07T08:23:42;9.18;;;1.42;;
48765;SDS011;65794;51.836;5.002;2023-04-07T08:26:09;8.48;;;1.65;;
48765;SDS011;65794;51.836;5.002;2023-04-07T08:28:36;7.28;;;1.52;;
48765;SDS011;65794;51.836;5.002;2023-04-07T08:31:03;8.40;;;1.42;;
48765;SDS011;65794;51.836;5.002;2023-04-07T08:33:30;7.47;;;1.40;;
48765;SDS011;65794;51.836;5.002;2023-04-07T08:35:57;5.22;;;1.15;;
48765;SDS011;65794;51.836;5.002;2023-04-07T08:38:24;10.35;;;1.25;;
48765;SDS011;65794;51.836;5.002;2023-04-07T08:40:53;9.60;;;1.17;;
48765;SDS011;65794;51.836;5.002;2023-04-07T08:43:20;5.57;;;1.20;;
48765;SDS011;65794;51.836;5.002;2023-04-07T08:45:48;4.57;;;1.15;;
48765;SDS011;65794;51.836;5.002;2023-04-07T08:48:18;11.35;;;1.35;;
48765;SDS011;65794;51.836;5.002;2023-04-07T08:50:48;9.25;;;1.00;;
48765;SDS011;65794;51.836;5.002;2023-04-07T08:53:22;10.38;;;1.42;;
48765;SDS011;65794;51.836;5.002;2023-04-07T08:55:49;11.93;;;1.83;;
48765;SDS011;65794;51.836;5.002;2023-04-07T08:58:17;10.52;;;2.25;;
48765;SDS011;65794;51.836;5.002;2023-04-07T09:00:44;8.30;;;1.30;;
48765;SDS011;65794;51.836;5.002;2023-04-07T09:04:15;6.68;;;2.03;;
48765;SDS011;65794;51.836;5.002;2023-04-07T09:10:52;6.60;;;1.60;;
48765;SDS011;65794;51.836;5.002;2023-04-07T09:13:25;17.88;;;3.33;;
48765;SDS011;65794;51.836;5.002;2023-04-07T09:15:52;16.98;;;2.97;;
48765;SDS011;65794;51.836;5.002;2023-04-07T09:18:19;14.75;;;2.20;;
48765;SDS011;65794;51.836;5.002;2023-04-07T09:20:53;15.35;;;2.53;;
48765;SDS011;65794;51.836;5.002;2023-04-07T09:23:53;14.10;;;2.42;;
48765;SDS011;65794;51.836;5.002;2023-04-07T09:28:44;13.40;;;2.47;;
48765;SDS011;65794;51.836;5.002;2023-04-07T09:31:11;13.48;;;2.42;;
48765;SDS011;65794;51.836;5.002;2023-04-07T09:33:38;12.23;;;1.80;;
48765;SDS011;65794;51.836;5.002;2023-04-07T09:36:05;7.65;;;2.13;;
48765;SDS011;65794;51.836;5.002;2023-04-07T09:38:33;15.88;;;2.50;;
48765;SDS011;65794;51.836;5.002;2023-04-07T09:43:37;13.48;;;2.78;;
48765;SDS011;65794;51.836;5.002;2023-04-07T09:46:05;12.02;;;2.40;;
48765;SDS011;65794;51.836;5.002;2023-04-07T09:48:34;14.85;;;1.98;;
48765;SDS011;65794;51.836;5.002;2023-04-07T09:51:05;12.90;;;2.25;;
48765;SDS011;65794;51.836;5.002;2023-04-07T09:53:46;10.38;;;2.25;;
48765;SDS011;65794;51.836;5.002;2023-04-07T09:56:14;17.75;;;2.78;;
48765;SDS011;65794;51.836;5.002;2023-04-07T09:58:43;13.55;;;2.65;;
48765;SDS011;65794;51.836;5.002;2023-04-07T10:01:10;7.90;;;1.67;;
48765;SDS011;65794;51.836;5.002;2023-04-07T10:03:38;11.32;;;2.42;;
48765;SDS011;65794;51.836;5.002;2023-04-07T10:06:05;16.20;;;2.58;;
48765;SDS011;65794;51.836;5.002;2023-04-07T10:08:34;6.88;;;1.73;;
48765;SDS011;65794;51.836;5.002;2023-04-07T10:11:02;12.57;;;2.13;;
48765;SDS011;65794;51.836;5.002;2023-04-07T10:13:29;15.35;;;1.75;;
48765;SDS011;65794;51.836;5.002;2023-04-07T10:15:57;10.23;;;2.05;;
48765;SDS011;65794;51.836;5.002;2023-04-07T10:18:27;11.65;;;2.17;;
48765;SDS011;65794;51.836;5.002;2023-04-07T10:20:56;12.32;;;2.25;;
48765;SDS011;65794;51.836;5.002;2023-04-07T10:23:44;7.85;;;1.80;;
48765;SDS011;65794;51.836;5.002;2023-04-07T10:26:17;15.55;;;2.50;;
48765;SDS011;65794;51.836;5.002;2023-04-07T10:28:45;17.23;;;2.30;;
48765;SDS011;65794;51.836;5.002;2023-04-07T10:31:14;8.73;;;1.50;;
48765;SDS011;65794;51.836;5.002;2023-04-07T10:33:48;12.32;;;2.28;;
48765;SDS011;65794;51.836;5.002;2023-04-07T10:36:19;16.48;;;2.20;;
48765;SDS011;65794;51.836;5.002;2023-04-07T10:44:05;10.07;;;1.95;;
48765;SDS011;65794;51.836;5.002;2023-04-07T10:49:12;14.35;;;1.83;;
48765;SDS011;65794;51.836;5.002;2023-04-07T10:51:41;11.38;;;2.30;;
48765;SDS011;65794;51.836;5.002;2023-04-07T10:59:40;16.08;;;2.30;;
48765;SDS011;65794;51.836;5.002;2023-04-07T11:04:41;12.45;;;2.65;;
48765;SDS011;65794;51.836;5.002;2023-04-07T11:07:09;13.90;;;2.58;;
48765;SDS011;65794;51.836;5.002;2023-04-07T11:09:37;12.07;;;2.45;;
48765;SDS011;65794;51.836;5.002;2023-04-07T11:12:04;12.35;;;2.65;;
48765;SDS011;65794;51.836;5.002;2023-04-07T11:14:32;14.52;;;2.97;;
48765;SDS011;65794;51.836;5.002;2023-04-07T11:16:59;16.08;;;2.60;;
48765;SDS011;65794;51.836;5.002;2023-04-07T11:19:29;18.27;;;3.15;;
48765;SDS011;65794;51.836;5.002;2023-04-07T11:22:14;7.75;;;2.13;;
48765;SDS011;65794;51.836;5.002;2023-04-07T11:24:55;11.88;;;2.53;;
48765;SDS011;65794;51.836;5.002;2023-04-07T11:27:22;16.85;;;2.75;;
48765;SDS011;65794;51.836;5.002;2023-04-07T11:29:49;11.50;;;2.55;;
48765;SDS011;65794;51.836;5.002;2023-04-07T11:32:21;10.30;;;2.10;;
48765;SDS011;65794;51.836;5.002;2023-04-07T11:34:51;15.68;;;2.45;;
48765;SDS011;65794;51.836;5.002;2023-04-07T11:37:22;11.63;;;2.47;;
48765;SDS011;65794;51.836;5.002;2023-04-07T11:39:58;12.85;;;2.50;;
48765;SDS011;65794;51.836;5.002;2023-04-07T11:42:35;7.38;;;2.30;;
48765;SDS011;65794;51.836;5.002;2023-04-07T11:45:02;9.75;;;2.53;;
48765;SDS011;65794;51.836;5.002;2023-04-07T11:47:36;11.65;;;1.80;;
48765;SDS011;65794;51.836;5.002;2023-04-07T11:50:03;16.90;;;2.60;;
48765;SDS011;65794;51.836;5.002;2023-04-07T11:52:48;10.93;;;2.15;;
48765;SDS011;65794;51.836;5.002;2023-04-07T11:55:19;18.07;;;2.83;;
48765;SDS011;65794;51.836;5.002;2023-04-07T11:57:48;11.88;;;2.22;;
48765;SDS011;65794;51.836;5.002;2023-04-07T12:00:17;11.93;;;2.22;;
48765;SDS011;65794;51.836;5.002;2023-04-07T12:02:45;15.85;;;3.08;;
48765;SDS011;65794;51.836;5.002;2023-04-07T12:05:12;14.77;;;2.95;;
48765;SDS011;65794;51.836;5.002;2023-04-07T12:07:39;12.45;;;2.83;;
48765;SDS011;65794;51.836;5.002;2023-04-07T12:10:17;19.05;;;3.10;;
48765;SDS011;65794;51.836;5.002;2023-04-07T12:12:44;19.77;;;3.05;;
48765;SDS011;65794;51.836;5.002;2023-04-07T12:15:11;8.77;;;2.42;;
48765;SDS011;65794;51.836;5.002;2023-04-07T12:17:43;9.55;;;2.63;;
48765;SDS011;65794;51.836;5.002;2023-04-07T12:20:10;11.43;;;2.67;;
48765;SDS011;65794;51.836;5.002;2023-04-07T12:22:37;12.85;;;2.92;;
48765;SDS011;65794;51.836;5.002;2023-04-07T12:25:04;9.90;;;2.35;;
48765;SDS011;65794;51.836;5.002;2023-04-07T12:27:32;11.38;;;2.35;;
48765;SDS011;65794;51.836;5.002;2023-04-07T12:30:09;12.90;;;2.33;;
48765;SDS011;65794;51.836;5.002;2023-04-07T12:32:36;15.15;;;2.78;;
48765;SDS011;65794;51.836;5.002;2023-04-07T12:35:04;25.17;;;3.17;;
48765;SDS011;65794;51.836;5.002;2023-04-07T12:37:31;15.60;;;2.97;;
48765;SDS011;65794;51.836;5.002;2023-04-07T12:39:58;11.60;;;2.55;;
48765;SDS011;65794;51.836;5.002;2023-04-07T12:42:26;19.90;;;3.10;;
48765;SDS011;65794;51.836;5.002;2023-04-07T12:44:53;12.95;;;2.88;;
48765;SDS011;65794;51.836;5.002;2023-04-07T12:47:20;18.27;;;3.30;;
48765;SDS011;65794;51.836;5.002;2023-04-07T12:49:47;19.92;;;2.90;;
48765;SDS011;65794;51.836;5.002;2023-04-07T12:52:15;8.48;;;2.40;;
48765;SDS011;65794;51.836;5.002;2023-04-07T12:54:42;14.05;;;2.20;;
48765;SDS011;65794;51.836;5.002;2023-04-07T12:57:11;11.40;;;2.60;;
48765;SDS011;65794;51.836;5.002;2023-04-07T12:59:37;15.32;;;3.17;;
48765;SDS011;65794;51.836;5.002;2023-04-07T13:02:06;11.63;;;2.67;;
48765;SDS011;65794;51.836;5.002;2023-04-07T13:04:34;16.75;;;3.40;;
48765;SDS011;65794;51.836;5.002;2023-04-07T13:07:02;11.05;;;2.55;;
48765;SDS011;65794;51.836;5.002;2023-04-07T13:09:29;14.35;;;3.42;;
48765;SDS011;65794;51.836;5.002;2023-04-07T13:11:56;13.15;;;3.08;;
48765;SDS011;65794;51.836;5.002;2023-04-07T13:14:23;21.08;;;3.70;;
48765;SDS011;65794;51.836;5.002;2023-04-07T13:16:50;12.20;;;2.90;;
48765;SDS011;65794;51.836;5.002;2023-04-07T13:19:17;15.52;;;2.67;;
48765;SDS011;65794;51.836;5.002;2023-04-07T13:21:44;15.65;;;3.50;;
48765;SDS011;65794;51.836;5.002;2023-04-07T13:24:14;18.75;;;3.40;;
48765;SDS011;65794;51.836;5.002;2023-04-07T13:26:41;23.20;;;4.15;;
48765;SDS011;65794;51.836;5.002;2023-04-07T13:29:07;20.00;;;4.13;;
48765;SDS011;65794;51.836;5.002;2023-04-07T13:31:35;22.23;;;4.65;;
48765;SDS011;65794;51.836;5.002;2023-04-07T13:34:02;16.35;;;3.60;;
48765;SDS011;65794;51.836;5.002;2023-04-07T13:36:28;16.38;;;4.05;;
48765;SDS011;65794;51.836;5.002;2023-04-07T13:38:56;22.73;;;4.25;;
48765;SDS011;65794;51.836;5.002;2023-04-07T13:41:23;14.60;;;3.05;;
48765;SDS011;65794;51.836;5.002;2023-04-07T13:43:50;15.15;;;3.92;;
48765;SDS011;65794;51.836;5.002;2023-04-07T13:46:17;18.38;;;3.03;;
48765;SDS011;65794;51.836;5.002;2023-04-07T13:48:47;18.83;;;3.72;;
48765;SDS011;65794;51.836;5.002;2023-04-07T13:51:15;11.88;;;3.83;;
48765;SDS011;65794;51.836;5.002;2023-04-07T13:53:42;19.40;;;3.50;;
48765;SDS011;65794;51.836;5.002;2023-04-07T13:56:09;10.05;;;2.90;;
48765;SDS011;65794;51.836;5.002;2023-04-07T13:58:36;11.23;;;3.40;;
48765;SDS011;65794;51.836;5.002;2023-04-07T14:01:03;12.73;;;3.50;;
48765;SDS011;65794;51.836;5.002;2023-04-07T14:03:30;12.35;;;3.08;;
48765;SDS011;65794;51.836;5.002;2023-04-07T14:05:57;14.88;;;3.08;;
48765;SDS011;65794;51.836;5.002;2023-04-07T14:08:26;15.93;;;3.53;;
48765;SDS011;65794;51.836;5.002;2023-04-07T14:10:53;17.02;;;3.30;;
48765;SDS011;65794;51.836;5.002;2023-04-07T14:13:21;12.18;;;2.80;;
48765;SDS011;65794;51.836;5.002;2023-04-07T14:15:48;12.68;;;3.00;;
48765;SDS011;65794;51.836;5.002;2023-04-07T14:18:15;16.33;;;3.40;;
48765;SDS011;65794;51.836;5.002;2023-04-07T14:20:43;15.45;;;3.53;;
48765;SDS011;65794;51.836;5.002;2023-04-07T14:23:10;6.38;;;2.63;;
48765;SDS011;65794;51.836;5.002;2023-04-07T14:25:39;12.70;;;3.28;;
48765;SDS011;65794;51.836;5.002;2023-04-07T14:28:06;14.88;;;3.45;;
48765;SDS011;65794;51.836;5.002;2023-04-07T14:30:36;12.23;;;3.00;;
48765;SDS011;65794;51.836;5.002;2023-04-07T14:33:06;13.35;;;3.55;;
48765;SDS011;65794;51.836;5.002;2023-04-07T14:35:35;10.25;;;3.33;;
48765;SDS011;65794;51.836;5.002;2023-04-07T14:38:02;20.38;;;4.20;;
48765;SDS011;65794;51.836;5.002;2023-04-07T14:40:29;18.25;;;3.25;;
48765;SDS011;65794;51.836;5.002;2023-04-07T14:42:56;16.13;;;3.53;;
48765;SDS011;65794;51.836;5.002;2023-04-07T14:45:27;14.65;;;3.35;;
48765;SDS011;65794;51.836;5.002;2023-04-07T14:47:54;10.70;;;2.53;;
48765;SDS011;65794;51.836;5.002;2023-04-07T14:50:21;16.63;;;3.15;;
48765;SDS011;65794;51.836;5.002;2023-04-07T14:52:49;9.25;;;2.78;;
48765;SDS011;65794;51.836;5.002;2023-04-07T14:55:16;12.88;;;3.28;;
48765;SDS011;65794;51.836;5.002;2023-04-07T14:57:43;15.45;;;3.13;;
48765;SDS011;65794;51.836;5.002;2023-04-07T15:00:11;13.65;;;3.40;;
48765;SDS011;65794;51.836;5.002;2023-04-07T15:02:39;11.95;;;2.92;;
48765;SDS011;65794;51.836;5.002;2023-04-07T15:05:06;12.75;;;4.07;;
48765;SDS011;65794;51.836;5.002;2023-04-07T15:07:33;14.70;;;4.15;;
48765;SDS011;65794;51.836;5.002;2023-04-07T15:10:00;10.82;;;3.70;;
48765;SDS011;65794;51.836;5.002;2023-04-07T15:12:27;11.18;;;3.47;;
48765;SDS011;65794;51.836;5.002;2023-04-07T15:14:57;20.05;;;4.07;;
48765;SDS011;65794;51.836;5.002;2023-04-07T15:17:23;15.52;;;4.35;;
48765;SDS011;65794;51.836;5.002;2023-04-07T15:20:08;14.90;;;3.78;;
48765;SDS011;65794;51.836;5.002;2023-04-07T15:22:35;10.18;;;3.45;;